sensor_id;sensor_type;location;lat;lon;timestamp;P1;durP1;ratioP1;P2;durP2;ratioP2
79139;SDS011;68546;59.142;37.948;2024-02-26T00:00:00;399.77;;;100.30;;
79139;SDS011;68546;59.142;37.948;2024-02-26T00:02:27;402.10;;;101.00;;
79139;SDS011;68546;59.142;37.948;2024-02-26T00:04:53;401.40;;;101.35;;
79139;SDS011;68546;59.142;37.948;2024-02-26T00:07:20;402.23;;;101.03;;
79139;SDS011;68546;59.142;37.948;2024-02-26T00:09:46;404.25;;;102.05;;
79139;SDS011;68546;59.142;37.948;2024-02-26T00:12:12;399.60;;;101.10;;
79139;SDS011;68546;59.142;37.948;2024-02-26T00:14:39;401.07;;;101.03;;
79139;SDS011;68546;59.142;37.948;2024-02-26T00:17:06;401.52;;;100.93;;
79139;SDS011;68546;59.142;37.948;2024-02-26T00:19:32;400.38;;;101.13;;
79139;SDS011;68546;59.142;37.948;2024-02-26T00:22:01;402.33;;;101.33;;
79139;SDS011;68546;59.142;37.948;2024-02-26T00:24:27;399.88;;;101.32;;
79139;SDS011;68546;59.142;37.948;2024-02-26T00:26:53;400.85;;;100.90;;
79139;SDS011;68546;59.142;37.948;2024-02-26T00:29:20;400.83;;;101.47;;
79139;SDS011;68546;59.142;37.948;2024-02-26T00:31:47;402.42;;;101.72;;
79139;SDS011;68546;59.142;37.948;2024-02-26T00:34:13;408.40;;;103.35;;
79139;SDS011;68546;59.142;37.948;2024-02-26T00:36:40;404.73;;;101.88;;
79139;SDS011;68546;59.142;37.948;2024-02-26T00:39:06;404.73;;;101.47;;
79139;SDS011;68546;59.142;37.948;2024-02-26T00:41:32;405.38;;;101.57;;
79139;SDS011;68546;59.142;37.948;2024-02-26T00:43:58;404.15;;;102.38;;
79139;SDS011;68546;59.142;37.948;2024-02-26T00:46:26;408.63;;;103.30;;
79139;SDS011;68546;59.142;37.948;2024-02-26T00:48:52;411.55;;;103.38;;
79139;SDS011;68546;59.142;37.948;2024-02-26T00:51:18;409.92;;;102.90;;
79139;SDS011;68546;59.142;37.948;2024-02-26T00:53:45;408.85;;;102.55;;
79139;SDS011;68546;59.142;37.948;2024-02-26T00:56:11;410.92;;;104.22;;
79139;SDS011;68546;59.142;37.948;2024-02-26T00:58:37;412.48;;;104.90;;
79139;SDS011;68546;59.142;37.948;2024-02-26T01:01:03;409.63;;;103.45;;
79139;SDS011;68546;59.142;37.948;2024-02-26T01:03:30;411.37;;;103.70;;
79139;SDS011;68546;59.142;37.948;2024-02-26T01:05:56;409.50;;;102.72;;
79139;SDS011;68546;59.142;37.948;2024-02-26T01:08:22;409.15;;;102.70;;
79139;SDS011;68546;59.142;37.948;2024-02-26T01:10:49;410.27;;;102.67;;
79139;SDS011;68546;59.142;37.948;2024-02-26T01:13:15;410.88;;;103.10;;
79139;SDS011;68546;59.142;37.948;2024-02-26T01:15:41;411.85;;;104.32;;
79139;SDS011;68546;59.142;37.948;2024-02-26T01:18:09;413.08;;;104.35;;
79139;SDS011;68546;59.142;37.948;2024-02-26T01:20:35;411.05;;;103.25;;
79139;SDS011;68546;59.142;37.948;2024-02-26T01:23:02;413.35;;;104.18;;
79139;SDS011;68546;59.142;37.948;2024-02-26T01:25:28;411.33;;;103.78;;
79139;SDS011;68546;59.142;37.948;2024-02-26T01:27:54;410.80;;;103.23;;
79139;SDS011;68546;59.142;37.948;2024-02-26T01:30:21;410.60;;;102.78;;
79139;SDS011;68546;59.142;37.948;2024-02-26T01:32:47;410.45;;;103.55;;
79139;SDS011;68546;59.142;37.948;2024-02-26T01:35:14;412.70;;;103.77;;
79139;SDS011;68546;59.142;37.948;2024-02-26T01:37:40;413.73;;;103.30;;
79139;SDS011;68546;59.142;37.948;2024-02-26T01:40:08;414.90;;;104.93;;
79139;SDS011;68546;59.142;37.948;2024-02-26T01:42:36;411.90;;;103.82;;
79139;SDS011;68546;59.142;37.948;2024-02-26T01:45:04;414.27;;;103.45;;
79139;SDS011;68546;59.142;37.948;2024-02-26T01:47:33;413.88;;;104.60;;
79139;SDS011;68546;59.142;37.948;2024-02-26T01:49:59;415.08;;;104.90;;
79139;SDS011;68546;59.142;37.948;2024-02-26T01:52:26;416.07;;;106.23;;
79139;SDS011;68546;59.142;37.948;2024-02-26T01:54:52;414.88;;;104.13;;
79139;SDS011;68546;59.142;37.948;2024-02-26T01:57:18;414.15;;;104.47;;
79139;SDS011;68546;59.142;37.948;2024-02-26T01:59:45;415.47;;;104.50;;
79139;SDS011;68546;59.142;37.948;2024-02-26T02:02:11;417.33;;;104.05;;
79139;SDS011;68546;59.142;37.948;2024-02-26T02:04:38;416.73;;;104.45;;
79139;SDS011;68546;59.142;37.948;2024-02-26T02:07:05;416.65;;;104.65;;
79139;SDS011;68546;59.142;37.948;2024-02-26T02:09:32;418.15;;;105.03;;
79139;SDS011;68546;59.142;37.948;2024-02-26T02:11:58;417.77;;;105.55;;
79139;SDS011;68546;59.142;37.948;2024-02-26T02:14:26;418.55;;;105.65;;
79139;SDS011;68546;59.142;37.948;2024-02-26T02:16:52;415.37;;;104.67;;
79139;SDS011;68546;59.142;37.948;2024-02-26T02:19:18;416.27;;;104.68;;
79139;SDS011;68546;59.142;37.948;2024-02-26T02:21:45;413.88;;;104.03;;
79139;SDS011;68546;59.142;37.948;2024-02-26T02:24:11;415.30;;;104.60;;
79139;SDS011;68546;59.142;37.948;2024-02-26T02:26:37;415.75;;;104.25;;
79139;SDS011;68546;59.142;37.948;2024-02-26T02:29:04;415.30;;;105.07;;
79139;SDS011;68546;59.142;37.948;2024-02-26T02:31:32;415.35;;;104.78;;
79139;SDS011;68546;59.142;37.948;2024-02-26T02:33:59;414.33;;;103.35;;
79139;SDS011;68546;59.142;37.948;2024-02-26T02:36:26;416.48;;;104.85;;
79139;SDS011;68546;59.142;37.948;2024-02-26T02:38:52;418.48;;;105.32;;
79139;SDS011;68546;59.142;37.948;2024-02-26T02:41:18;417.33;;;104.87;;
79139;SDS011;68546;59.142;37.948;2024-02-26T02:43:45;418.77;;;105.30;;
79139;SDS011;68546;59.142;37.948;2024-02-26T02:46:11;418.38;;;104.53;;
79139;SDS011;68546;59.142;37.948;2024-02-26T02:48:38;422.37;;;105.80;;
79139;SDS011;68546;59.142;37.948;2024-02-26T02:51:04;422.23;;;105.88;;
79139;SDS011;68546;59.142;37.948;2024-02-26T02:53:31;421.73;;;106.20;;
79139;SDS011;68546;59.142;37.948;2024-02-26T02:55:57;421.75;;;106.32;;
79139;SDS011;68546;59.142;37.948;2024-02-26T02:58:23;425.98;;;106.80;;
79139;SDS011;68546;59.142;37.948;2024-02-26T03:00:49;426.88;;;108.22;;
79139;SDS011;68546;59.142;37.948;2024-02-26T03:03:16;427.05;;;108.22;;
79139;SDS011;68546;59.142;37.948;2024-02-26T03:05:42;424.83;;;106.60;;
79139;SDS011;68546;59.142;37.948;2024-02-26T03:08:08;428.35;;;107.57;;
79139;SDS011;68546;59.142;37.948;2024-02-26T03:10:35;425.02;;;106.93;;
79139;SDS011;68546;59.142;37.948;2024-02-26T03:13:01;425.47;;;106.87;;
79139;SDS011;68546;59.142;37.948;2024-02-26T03:15:28;417.30;;;104.85;;
79139;SDS011;68546;59.142;37.948;2024-02-26T03:17:54;416.38;;;105.28;;
79139;SDS011;68546;59.142;37.948;2024-02-26T03:20:20;415.92;;;104.35;;
79139;SDS011;68546;59.142;37.948;2024-02-26T03:22:47;416.67;;;105.18;;
79139;SDS011;68546;59.142;37.948;2024-02-26T03:25:13;421.58;;;106.85;;
79139;SDS011;68546;59.142;37.948;2024-02-26T03:27:39;418.13;;;104.85;;
79139;SDS011;68546;59.142;37.948;2024-02-26T03:30:06;418.77;;;105.10;;
79139;SDS011;68546;59.142;37.948;2024-02-26T03:32:32;423.20;;;106.68;;
79139;SDS011;68546;59.142;37.948;2024-02-26T03:34:58;419.42;;;105.68;;
79139;SDS011;68546;59.142;37.948;2024-02-26T03:37:25;421.63;;;106.20;;
79139;SDS011;68546;59.142;37.948;2024-02-26T03:39:51;423.05;;;106.47;;
79139;SDS011;68546;59.142;37.948;2024-02-26T03:42:18;421.65;;;106.13;;
79139;SDS011;68546;59.142;37.948;2024-02-26T03:44:45;425.08;;;107.25;;
79139;SDS011;68546;59.142;37.948;2024-02-26T03:47:11;428.95;;;107.50;;
79139;SDS011;68546;59.142;37.948;2024-02-26T03:49:38;424.02;;;107.18;;
79139;SDS011;68546;59.142;37.948;2024-02-26T03:52:04;426.15;;;107.10;;
79139;SDS011;68546;59.142;37.948;2024-02-26T03:54:30;422.73;;;106.17;;
79139;SDS011;68546;59.142;37.948;2024-02-26T03:56:57;425.60;;;106.80;;
79139;SDS011;68546;59.142;37.948;2024-02-26T03:59:23;423.45;;;106.50;;
79139;SDS011;68546;59.142;37.948;2024-02-26T04:01:50;426.50;;;107.50;;
79139;SDS011;68546;59.142;37.948;2024-02-26T04:04:17;423.40;;;106.20;;
79139;SDS011;68546;59.142;37.948;2024-02-26T04:06:46;425.30;;;107.15;;
79139;SDS011;68546;59.142;37.948;2024-02-26T04:09:15;425.63;;;106.60;;
79139;SDS011;68546;59.142;37.948;2024-02-26T04:11:42;428.13;;;107.75;;
79139;SDS011;68546;59.142;37.948;2024-02-26T04:14:11;429.77;;;108.72;;
79139;SDS011;68546;59.142;37.948;2024-02-26T04:16:38;430.58;;;108.50;;
79139;SDS011;68546;59.142;37.948;2024-02-26T04:19:04;430.03;;;107.97;;
79139;SDS011;68546;59.142;37.948;2024-02-26T04:21:31;430.92;;;108.30;;
79139;SDS011;68546;59.142;37.948;2024-02-26T04:23:57;429.17;;;107.68;;
79139;SDS011;68546;59.142;37.948;2024-02-26T04:26:26;432.00;;;108.13;;
79139;SDS011;68546;59.142;37.948;2024-02-26T04:28:53;433.75;;;109.05;;
79139;SDS011;68546;59.142;37.948;2024-02-26T04:31:19;433.50;;;108.38;;
79139;SDS011;68546;59.142;37.948;2024-02-26T04:33:46;432.83;;;108.65;;
79139;SDS011;68546;59.142;37.948;2024-02-26T04:36:15;432.65;;;108.18;;
79139;SDS011;68546;59.142;37.948;2024-02-26T04:38:42;436.80;;;110.53;;
79139;SDS011;68546;59.142;37.948;2024-02-26T04:41:12;435.10;;;109.07;;
79139;SDS011;68546;59.142;37.948;2024-02-26T04:43:38;436.60;;;109.23;;
79139;SDS011;68546;59.142;37.948;2024-02-26T04:46:07;436.67;;;109.45;;
79139;SDS011;68546;59.142;37.948;2024-02-26T04:48:35;432.73;;;108.18;;
79139;SDS011;68546;59.142;37.948;2024-02-26T04:51:02;435.87;;;109.07;;
79139;SDS011;68546;59.142;37.948;2024-02-26T04:53:29;436.10;;;108.63;;
79139;SDS011;68546;59.142;37.948;2024-02-26T04:55:55;434.38;;;108.85;;
79139;SDS011;68546;59.142;37.948;2024-02-26T04:58:21;435.90;;;109.20;;
79139;SDS011;68546;59.142;37.948;2024-02-26T05:00:47;434.35;;;108.40;;
79139;SDS011;68546;59.142;37.948;2024-02-26T05:03:14;436.33;;;109.75;;
79139;SDS011;68546;59.142;37.948;2024-02-26T05:05:44;433.90;;;108.82;;
79139;SDS011;68546;59.142;37.948;2024-02-26T05:08:11;438.10;;;109.77;;
79139;SDS011;68546;59.142;37.948;2024-02-26T05:10:37;436.77;;;109.97;;
79139;SDS011;68546;59.142;37.948;2024-02-26T05:13:06;434.15;;;108.25;;
79139;SDS011;68546;59.142;37.948;2024-02-26T05:15:33;431.93;;;108.23;;
79139;SDS011;68546;59.142;37.948;2024-02-26T05:17:59;432.63;;;108.22;;
79139;SDS011;68546;59.142;37.948;2024-02-26T05:20:25;432.25;;;108.28;;
79139;SDS011;68546;59.142;37.948;2024-02-26T05:22:52;431.55;;;108.00;;
79139;SDS011;68546;59.142;37.948;2024-02-26T05:25:18;430.48;;;107.72;;
79139;SDS011;68546;59.142;37.948;2024-02-26T05:27:44;431.73;;;108.80;;
79139;SDS011;68546;59.142;37.948;2024-02-26T05:30:11;431.83;;;108.65;;
79139;SDS011;68546;59.142;37.948;2024-02-26T05:32:37;429.50;;;108.20;;
79139;SDS011;68546;59.142;37.948;2024-02-26T05:35:04;430.23;;;107.80;;
79139;SDS011;68546;59.142;37.948;2024-02-26T05:37:30;429.65;;;108.05;;
79139;SDS011;68546;59.142;37.948;2024-02-26T05:39:57;431.27;;;108.03;;
79139;SDS011;68546;59.142;37.948;2024-02-26T05:42:24;433.13;;;108.85;;
79139;SDS011;68546;59.142;37.948;2024-02-26T05:44:50;428.65;;;107.53;;
79139;SDS011;68546;59.142;37.948;2024-02-26T05:47:16;428.13;;;107.47;;
79139;SDS011;68546;59.142;37.948;2024-02-26T05:49:44;429.13;;;107.32;;
79139;SDS011;68546;59.142;37.948;2024-02-26T05:52:10;431.88;;;109.50;;
79139;SDS011;68546;59.142;37.948;2024-02-26T05:54:37;428.92;;;108.32;;
79139;SDS011;68546;59.142;37.948;2024-02-26T05:57:03;426.23;;;106.83;;
79139;SDS011;68546;59.142;37.948;2024-02-26T05:59:29;428.90;;;107.68;;
79139;SDS011;68546;59.142;37.948;2024-02-26T06:01:56;427.92;;;107.43;;
79139;SDS011;68546;59.142;37.948;2024-02-26T06:04:22;418.77;;;105.60;;
79139;SDS011;68546;59.142;37.948;2024-02-26T06:06:48;406.75;;;102.60;;
79139;SDS011;68546;59.142;37.948;2024-02-26T06:09:15;404.33;;;102.25;;
79139;SDS011;68546;59.142;37.948;2024-02-26T06:11:41;403.70;;;101.90;;
79139;SDS011;68546;59.142;37.948;2024-02-26T06:14:07;406.27;;;102.88;;
79139;SDS011;68546;59.142;37.948;2024-02-26T06:16:34;404.05;;;102.55;;
79139;SDS011;68546;59.142;37.948;2024-02-26T06:19:00;403.42;;;102.43;;
79139;SDS011;68546;59.142;37.948;2024-02-26T06:21:27;401.73;;;101.47;;
79139;SDS011;68546;59.142;37.948;2024-02-26T06:23:53;404.80;;;103.10;;
79139;SDS011;68546;59.142;37.948;2024-02-26T06:26:20;400.33;;;101.30;;
79139;SDS011;68546;59.142;37.948;2024-02-26T06:28:46;401.50;;;101.50;;
79139;SDS011;68546;59.142;37.948;2024-02-26T06:31:13;399.77;;;100.53;;
79139;SDS011;68546;59.142;37.948;2024-02-26T06:33:39;401.58;;;102.05;;
79139;SDS011;68546;59.142;37.948;2024-02-26T06:36:05;399.90;;;101.35;;
79139;SDS011;68546;59.142;37.948;2024-02-26T06:38:32;402.52;;;101.47;;
79139;SDS011;68546;59.142;37.948;2024-02-26T06:40:58;402.20;;;102.45;;
79139;SDS011;68546;59.142;37.948;2024-02-26T06:43:24;400.15;;;101.80;;
79139;SDS011;68546;59.142;37.948;2024-02-26T06:45:51;399.47;;;100.93;;
79139;SDS011;68546;59.142;37.948;2024-02-26T06:48:17;400.10;;;101.05;;
79139;SDS011;68546;59.142;37.948;2024-02-26T06:50:43;399.42;;;100.95;;
79139;SDS011;68546;59.142;37.948;2024-02-26T06:53:10;399.53;;;100.40;;
79139;SDS011;68546;59.142;37.948;2024-02-26T06:55:36;402.17;;;102.20;;
79139;SDS011;68546;59.142;37.948;2024-02-26T06:58:06;401.67;;;101.85;;
79139;SDS011;68546;59.142;37.948;2024-02-26T07:00:32;401.50;;;101.30;;
79139;SDS011;68546;59.142;37.948;2024-02-26T07:02:58;401.33;;;100.95;;
79139;SDS011;68546;59.142;37.948;2024-02-26T07:05:24;399.90;;;101.15;;
79139;SDS011;68546;59.142;37.948;2024-02-26T07:07:50;399.88;;;101.20;;
79139;SDS011;68546;59.142;37.948;2024-02-26T07:10:17;401.40;;;101.23;;
79139;SDS011;68546;59.142;37.948;2024-02-26T07:12:43;402.33;;;101.68;;
79139;SDS011;68546;59.142;37.948;2024-02-26T07:15:10;401.73;;;101.85;;
79139;SDS011;68546;59.142;37.948;2024-02-26T07:17:36;404.17;;;101.70;;
79139;SDS011;68546;59.142;37.948;2024-02-26T07:20:03;403.80;;;101.22;;
79139;SDS011;68546;59.142;37.948;2024-02-26T07:22:33;402.60;;;101.80;;
79139;SDS011;68546;59.142;37.948;2024-02-26T07:24:59;400.50;;;100.97;;
79139;SDS011;68546;59.142;37.948;2024-02-26T07:27:25;402.27;;;101.70;;
79139;SDS011;68546;59.142;37.948;2024-02-26T07:29:51;402.55;;;102.43;;
79139;SDS011;68546;59.142;37.948;2024-02-26T07:32:18;399.67;;;101.07;;
79139;SDS011;68546;59.142;37.948;2024-02-26T07:34:44;402.37;;;100.97;;
79139;SDS011;68546;59.142;37.948;2024-02-26T07:37:11;399.85;;;101.05;;
79139;SDS011;68546;59.142;37.948;2024-02-26T07:39:37;397.25;;;100.88;;
79139;SDS011;68546;59.142;37.948;2024-02-26T07:42:04;399.07;;;101.23;;
79139;SDS011;68546;59.142;37.948;2024-02-26T07:44:30;398.77;;;100.13;;
79139;SDS011;68546;59.142;37.948;2024-02-26T07:46:57;396.33;;;100.57;;
79139;SDS011;68546;59.142;37.948;2024-02-26T07:49:23;398.77;;;100.35;;
79139;SDS011;68546;59.142;37.948;2024-02-26T07:51:49;397.73;;;100.90;;
79139;SDS011;68546;59.142;37.948;2024-02-26T07:54:16;400.98;;;101.75;;
79139;SDS011;68546;59.142;37.948;2024-02-26T07:56:42;396.15;;;100.20;;
79139;SDS011;68546;59.142;37.948;2024-02-26T07:59:08;398.80;;;100.83;;
79139;SDS011;68546;59.142;37.948;2024-02-26T08:01:35;399.25;;;101.03;;
79139;SDS011;68546;59.142;37.948;2024-02-26T08:04:04;396.08;;;100.20;;
79139;SDS011;68546;59.142;37.948;2024-02-26T08:06:31;397.73;;;100.53;;
79139;SDS011;68546;59.142;37.948;2024-02-26T08:08:57;396.75;;;100.00;;
79139;SDS011;68546;59.142;37.948;2024-02-26T08:11:23;396.42;;;100.10;;
79139;SDS011;68546;59.142;37.948;2024-02-26T08:13:49;396.20;;;100.13;;
79139;SDS011;68546;59.142;37.948;2024-02-26T08:16:16;394.90;;;99.80;;
79139;SDS011;68546;59.142;37.948;2024-02-26T08:18:42;397.88;;;100.90;;
79139;SDS011;68546;59.142;37.948;2024-02-26T08:21:09;395.30;;;100.47;;
79139;SDS011;68546;59.142;37.948;2024-02-26T08:23:35;393.63;;;99.60;;
79139;SDS011;68546;59.142;37.948;2024-02-26T08:26:01;396.83;;;100.55;;
79139;SDS011;68546;59.142;37.948;2024-02-26T08:28:30;396.50;;;99.80;;
79139;SDS011;68546;59.142;37.948;2024-02-26T08:30:56;396.97;;;100.90;;
79139;SDS011;68546;59.142;37.948;2024-02-26T08:33:22;394.60;;;99.57;;
79139;SDS011;68546;59.142;37.948;2024-02-26T08:35:48;394.50;;;100.90;;
79139;SDS011;68546;59.142;37.948;2024-02-26T08:38:15;392.05;;;99.28;;
79139;SDS011;68546;59.142;37.948;2024-02-26T08:40:41;394.98;;;99.97;;
79139;SDS011;68546;59.142;37.948;2024-02-26T08:43:07;394.00;;;99.97;;
79139;SDS011;68546;59.142;37.948;2024-02-26T08:45:35;394.08;;;99.88;;
79139;SDS011;68546;59.142;37.948;2024-02-26T08:48:01;395.37;;;99.50;;
79139;SDS011;68546;59.142;37.948;2024-02-26T08:50:27;394.77;;;99.88;;
79139;SDS011;68546;59.142;37.948;2024-02-26T08:52:54;389.73;;;98.70;;
79139;SDS011;68546;59.142;37.948;2024-02-26T08:55:20;394.03;;;100.23;;
79139;SDS011;68546;59.142;37.948;2024-02-26T08:57:47;394.02;;;99.90;;
79139;SDS011;68546;59.142;37.948;2024-02-26T09:00:14;389.08;;;99.28;;
79139;SDS011;68546;59.142;37.948;2024-02-26T09:02:47;387.40;;;99.32;;
79139;SDS011;68546;59.142;37.948;2024-02-26T09:05:14;392.67;;;99.35;;
79139;SDS011;68546;59.142;37.948;2024-02-26T09:07:41;389.52;;;99.53;;
79139;SDS011;68546;59.142;37.948;2024-02-26T09:10:07;387.67;;;99.35;;
79139;SDS011;68546;59.142;37.948;2024-02-26T09:12:37;387.03;;;98.83;;
79139;SDS011;68546;59.142;37.948;2024-02-26T09:15:06;385.02;;;98.43;;
79139;SDS011;68546;59.142;37.948;2024-02-26T09:17:33;382.77;;;97.50;;
79139;SDS011;68546;59.142;37.948;2024-02-26T09:19:59;384.57;;;98.83;;
79139;SDS011;68546;59.142;37.948;2024-02-26T09:22:25;384.60;;;97.70;;
79139;SDS011;68546;59.142;37.948;2024-02-26T09:24:52;382.23;;;98.05;;
79139;SDS011;68546;59.142;37.948;2024-02-26T09:27:19;384.05;;;97.32;;
79139;SDS011;68546;59.142;37.948;2024-02-26T09:29:45;385.45;;;97.93;;
79139;SDS011;68546;59.142;37.948;2024-02-26T09:32:12;385.77;;;97.75;;
79139;SDS011;68546;59.142;37.948;2024-02-26T09:34:39;385.27;;;98.18;;
79139;SDS011;68546;59.142;37.948;2024-02-26T09:37:06;384.53;;;98.23;;
79139;SDS011;68546;59.142;37.948;2024-02-26T09:39:33;385.85;;;98.75;;
79139;SDS011;68546;59.142;37.948;2024-02-26T09:42:00;385.45;;;98.70;;
79139;SDS011;68546;59.142;37.948;2024-02-26T09:44:30;387.58;;;98.78;;
79139;SDS011;68546;59.142;37.948;2024-02-26T09:47:01;385.10;;;97.73;;
79139;SDS011;68546;59.142;37.948;2024-02-26T09:49:29;384.65;;;97.72;;
79139;SDS011;68546;59.142;37.948;2024-02-26T09:51:55;384.55;;;98.32;;
79139;SDS011;68546;59.142;37.948;2024-02-26T09:54:24;385.77;;;98.27;;
79139;SDS011;68546;59.142;37.948;2024-02-26T09:56:52;384.20;;;98.10;;
79139;SDS011;68546;59.142;37.948;2024-02-26T09:59:23;383.55;;;98.45;;
79139;SDS011;68546;59.142;37.948;2024-02-26T10:01:50;384.45;;;97.78;;
79139;SDS011;68546;59.142;37.948;2024-02-26T10:04:17;386.33;;;98.53;;
79139;SDS011;68546;59.142;37.948;2024-02-26T10:06:45;387.33;;;97.78;;
79139;SDS011;68546;59.142;37.948;2024-02-26T10:09:12;387.10;;;98.82;;
79139;SDS011;68546;59.142;37.948;2024-02-26T10:11:41;387.27;;;98.43;;
79139;SDS011;68546;59.142;37.948;2024-02-26T10:14:09;386.25;;;97.93;;
79139;SDS011;68546;59.142;37.948;2024-02-26T10:16:35;385.00;;;98.75;;
79139;SDS011;68546;59.142;37.948;2024-02-26T10:19:02;384.02;;;97.75;;
79139;SDS011;68546;59.142;37.948;2024-02-26T10:21:29;385.33;;;97.93;;
79139;SDS011;68546;59.142;37.948;2024-02-26T10:23:55;384.17;;;97.88;;
79139;SDS011;68546;59.142;37.948;2024-02-26T10:26:21;382.17;;;97.55;;
79139;SDS011;68546;59.142;37.948;2024-02-26T10:28:48;380.10;;;96.53;;
79139;SDS011;68546;59.142;37.948;2024-02-26T10:31:14;379.05;;;96.47;;
79139;SDS011;68546;59.142;37.948;2024-02-26T10:33:41;371.63;;;96.30;;
79139;SDS011;68546;59.142;37.948;2024-02-26T10:36:09;369.88;;;94.57;;
79139;SDS011;68546;59.142;37.948;2024-02-26T10:38:36;369.70;;;94.97;;
79139;SDS011;68546;59.142;37.948;2024-02-26T10:41:03;370.05;;;94.47;;
79139;SDS011;68546;59.142;37.948;2024-02-26T10:43:30;366.63;;;94.32;;
79139;SDS011;68546;59.142;37.948;2024-02-26T10:45:56;372.50;;;95.13;;
79139;SDS011;68546;59.142;37.948;2024-02-26T10:48:23;373.25;;;94.88;;
79139;SDS011;68546;59.142;37.948;2024-02-26T10:50:50;372.27;;;94.93;;
79139;SDS011;68546;59.142;37.948;2024-02-26T10:53:17;374.02;;;95.93;;
79139;SDS011;68546;59.142;37.948;2024-02-26T10:55:48;375.70;;;95.40;;
79139;SDS011;68546;59.142;37.948;2024-02-26T10:58:18;374.70;;;96.38;;
79139;SDS011;68546;59.142;37.948;2024-02-26T11:00:45;375.05;;;96.57;;
79139;SDS011;68546;59.142;37.948;2024-02-26T11:03:13;375.17;;;96.33;;
79139;SDS011;68546;59.142;37.948;2024-02-26T11:05:43;377.92;;;96.18;;
79139;SDS011;68546;59.142;37.948;2024-02-26T11:08:11;380.80;;;96.88;;
79139;SDS011;68546;59.142;37.948;2024-02-26T11:10:37;381.30;;;96.60;;
79139;SDS011;68546;59.142;37.948;2024-02-26T11:13:06;380.73;;;96.95;;
79139;SDS011;68546;59.142;37.948;2024-02-26T11:15:35;379.20;;;96.32;;
79139;SDS011;68546;59.142;37.948;2024-02-26T11:18:02;379.00;;;96.32;;
79139;SDS011;68546;59.142;37.948;2024-02-26T11:20:29;383.87;;;97.73;;
79139;SDS011;68546;59.142;37.948;2024-02-26T11:22:59;380.60;;;96.45;;
79139;SDS011;68546;59.142;37.948;2024-02-26T11:25:25;382.55;;;96.88;;
79139;SDS011;68546;59.142;37.948;2024-02-26T11:27:53;381.90;;;97.15;;
79139;SDS011;68546;59.142;37.948;2024-02-26T11:30:25;384.77;;;97.10;;
79139;SDS011;68546;59.142;37.948;2024-02-26T11:32:55;376.85;;;95.80;;
79139;SDS011;68546;59.142;37.948;2024-02-26T11:35:21;372.85;;;94.85;;
79139;SDS011;68546;59.142;37.948;2024-02-26T11:37:55;375.27;;;95.60;;
79139;SDS011;68546;59.142;37.948;2024-02-26T11:40:23;379.40;;;96.40;;
79139;SDS011;68546;59.142;37.948;2024-02-26T11:42:51;375.38;;;95.97;;
79139;SDS011;68546;59.142;37.948;2024-02-26T11:48:21;380.97;;;96.50;;
79139;SDS011;68546;59.142;37.948;2024-02-26T11:50:50;374.73;;;95.38;;
79139;SDS011;68546;59.142;37.948;2024-02-26T11:56:34;379.55;;;96.85;;
79139;SDS011;68546;59.142;37.948;2024-02-26T11:58:41;384.08;;;97.07;;
79139;SDS011;68546;59.142;37.948;2024-02-26T12:04:23;383.55;;;96.88;;
79139;SDS011;68546;59.142;37.948;2024-02-26T12:06:58;386.70;;;97.77;;
79139;SDS011;68546;59.142;37.948;2024-02-26T12:09:45;381.10;;;96.65;;
79139;SDS011;68546;59.142;37.948;2024-02-26T12:12:13;383.00;;;97.35;;
79139;SDS011;68546;59.142;37.948;2024-02-26T12:14:51;387.30;;;98.05;;
79139;SDS011;68546;59.142;37.948;2024-02-26T12:17:23;387.00;;;97.40;;
79139;SDS011;68546;59.142;37.948;2024-02-26T12:19:50;388.80;;;98.60;;
79139;SDS011;68546;59.142;37.948;2024-02-26T12:22:18;389.30;;;98.20;;
79139;SDS011;68546;59.142;37.948;2024-02-26T12:24:45;389.30;;;97.93;;
79139;SDS011;68546;59.142;37.948;2024-02-26T12:27:11;390.13;;;97.97;;
79139;SDS011;68546;59.142;37.948;2024-02-26T12:29:38;389.00;;;97.63;;
79139;SDS011;68546;59.142;37.948;2024-02-26T12:32:05;396.13;;;100.07;;
79139;SDS011;68546;59.142;37.948;2024-02-26T12:34:32;394.85;;;99.22;;
79139;SDS011;68546;59.142;37.948;2024-02-26T12:36:58;396.80;;;100.40;;
79139;SDS011;68546;59.142;37.948;2024-02-26T12:39:25;399.98;;;100.65;;
79139;SDS011;68546;59.142;37.948;2024-02-26T12:41:51;397.00;;;99.95;;
79139;SDS011;68546;59.142;37.948;2024-02-26T12:44:18;396.13;;;99.78;;
79139;SDS011;68546;59.142;37.948;2024-02-26T12:46:50;396.45;;;100.00;;
79139;SDS011;68546;59.142;37.948;2024-02-26T12:49:17;395.90;;;98.73;;
79139;SDS011;68546;59.142;37.948;2024-02-26T12:51:44;399.38;;;100.13;;
79139;SDS011;68546;59.142;37.948;2024-02-26T12:54:11;398.58;;;100.15;;
79139;SDS011;68546;59.142;37.948;2024-02-26T12:56:38;402.10;;;100.93;;
79139;SDS011;68546;59.142;37.948;2024-02-26T12:59:05;400.45;;;100.50;;
79139;SDS011;68546;59.142;37.948;2024-02-26T13:01:32;403.80;;;100.68;;
79139;SDS011;68546;59.142;37.948;2024-02-26T13:03:58;401.90;;;101.07;;
79139;SDS011;68546;59.142;37.948;2024-02-26T13:06:26;402.05;;;100.95;;
79139;SDS011;68546;59.142;37.948;2024-02-26T13:08:56;404.85;;;102.72;;
79139;SDS011;68546;59.142;37.948;2024-02-26T13:11:24;401.02;;;100.55;;
79139;SDS011;68546;59.142;37.948;2024-02-26T13:13:51;405.03;;;101.23;;
79139;SDS011;68546;59.142;37.948;2024-02-26T13:16:17;406.55;;;101.43;;
79139;SDS011;68546;59.142;37.948;2024-02-26T13:18:43;406.35;;;101.97;;
79139;SDS011;68546;59.142;37.948;2024-02-26T13:21:10;406.77;;;102.57;;
79139;SDS011;68546;59.142;37.948;2024-02-26T13:23:38;407.15;;;102.05;;
79139;SDS011;68546;59.142;37.948;2024-02-26T13:26:05;406.17;;;101.78;;
79139;SDS011;68546;59.142;37.948;2024-02-26T13:28:33;408.45;;;102.93;;
79139;SDS011;68546;59.142;37.948;2024-02-26T13:31:00;408.67;;;102.75;;
79139;SDS011;68546;59.142;37.948;2024-02-26T13:33:27;411.08;;;103.63;;
79139;SDS011;68546;59.142;37.948;2024-02-26T13:35:55;409.05;;;102.65;;
79139;SDS011;68546;59.142;37.948;2024-02-26T13:38:22;409.90;;;102.87;;
79139;SDS011;68546;59.142;37.948;2024-02-26T13:40:52;410.23;;;102.53;;
79139;SDS011;68546;59.142;37.948;2024-02-26T13:43:18;410.48;;;103.75;;
79139;SDS011;68546;59.142;37.948;2024-02-26T13:45:45;414.53;;;104.40;;
79139;SDS011;68546;59.142;37.948;2024-02-26T13:48:13;412.88;;;103.55;;
79139;SDS011;68546;59.142;37.948;2024-02-26T13:50:40;412.60;;;104.22;;
79139;SDS011;68546;59.142;37.948;2024-02-26T13:53:09;411.17;;;103.57;;
79139;SDS011;68546;59.142;37.948;2024-02-26T13:55:35;413.63;;;104.57;;